sensor_id;sensor_type;location;lat;lon;timestamp;temperature;humidity
49861;DHT22;35761;48.826;9.238;2023-04-03T00:02:16;5.40;36.70
49861;DHT22;35761;48.826;9.238;2023-04-03T00:04:49;5.30;36.70
49861;DHT22;35761;48.826;9.238;2023-04-03T00:07:19;5.40;36.90
49861;DHT22;35761;48.826;9.238;2023-04-03T00:09:50;5.30;36.90
49861;DHT22;35761;48.826;9.238;2023-04-03T00:12:20;5.40;36.90
49861;DHT22;35761;48.826;9.238;2023-04-03T00:14:51;5.30;36.80
49861;DHT22;35761;48.826;9.238;2023-04-03T00:17:21;5.30;36.80
49861;DHT22;35761;48.826;9.238;2023-04-03T00:19:55;5.30;36.90
49861;DHT22;35761;48.826;9.238;2023-04-03T00:22:25;5.30;37.00
49861;DHT22;35761;48.826;9.238;2023-04-03T00:24:56;5.30;37.10
49861;DHT22;35761;48.826;9.238;2023-04-03T00:27:27;5.20;36.90
49861;DHT22;35761;48.826;9.238;2023-04-03T00:29:57;5.20;37.10
49861;DHT22;35761;48.826;9.238;2023-04-03T00:32:28;5.20;37.20
49861;DHT22;35761;48.826;9.238;2023-04-03T00:35:01;5.20;37.40
49861;DHT22;35761;48.826;9.238;2023-04-03T00:37:32;5.10;37.50
49861;DHT22;35761;48.826;9.238;2023-04-03T00:40:05;5.10;37.50
49861;DHT22;35761;48.826;9.238;2023-04-03T00:42:37;5.10;37.80
49861;DHT22;35761;48.826;9.238;2023-04-03T00:45:31;5.10;38.00
49861;DHT22;35761;48.826;9.238;2023-04-03T00:48:06;5.10;37.80
49861;DHT22;35761;48.826;9.238;2023-04-03T00:50:43;5.10;37.60
49861;DHT22;35761;48.826;9.238;2023-04-03T00:53:18;5.10;37.80
49861;DHT22;35761;48.826;9.238;2023-04-03T00:55:51;5.10;38.10
49861;DHT22;35761;48.826;9.238;2023-04-03T00:58:28;5.00;38.20
49861;DHT22;35761;48.826;9.238;2023-04-03T01:01:07;5.00;38.30
49861;DHT22;35761;48.826;9.238;2023-04-03T01:03:38;5.00;38.50
49861;DHT22;35761;48.826;9.238;2023-04-03T01:06:12;4.90;38.40
49861;DHT22;35761;48.826;9.238;2023-04-03T01:08:45;4.90;38.50
49861;DHT22;35761;48.826;9.238;2023-04-03T01:11:18;5.00;38.50
49861;DHT22;35761;48.826;9.238;2023-04-03T01:13:49;4.90;38.50
49861;DHT22;35761;48.826;9.238;2023-04-03T01:16:20;5.00;38.50
49861;DHT22;35761;48.826;9.238;2023-04-03T01:18:51;4.90;38.50
49861;DHT22;35761;48.826;9.238;2023-04-03T01:22:00;4.90;38.70
49861;DHT22;35761;48.826;9.238;2023-04-03T01:24:36;4.90;38.60
49861;DHT22;35761;48.826;9.238;2023-04-03T01:27:10;4.90;38.90
49861;DHT22;35761;48.826;9.238;2023-04-03T01:29:42;4.90;39.00
49861;DHT22;35761;48.826;9.238;2023-04-03T01:32:16;4.90;39.10
49861;DHT22;35761;48.826;9.238;2023-04-03T01:34:46;4.80;38.90
49861;DHT22;35761;48.826;9.238;2023-04-03T01:37:17;4.80;38.90
49861;DHT22;35761;48.826;9.238;2023-04-03T01:39:47;4.70;38.80
49861;DHT22;35761;48.826;9.238;2023-04-03T01:42:18;4.70;38.80
49861;DHT22;35761;48.826;9.238;2023-04-03T01:44:49;4.70;38.70
49861;DHT22;35761;48.826;9.238;2023-04-03T01:47:22;4.70;39.00
49861;DHT22;35761;48.826;9.238;2023-04-03T01:49:53;4.70;38.80
49861;DHT22;35761;48.826;9.238;2023-04-03T01:52:24;4.70;39.10
49861;DHT22;35761;48.826;9.238;2023-04-03T01:54:55;4.70;39.30
49861;DHT22;35761;48.826;9.238;2023-04-03T01:57:25;4.70;39.00
49861;DHT22;35761;48.826;9.238;2023-04-03T01:59:56;4.60;38.80
49861;DHT22;35761;48.826;9.238;2023-04-03T02:02:29;4.60;38.90
49861;DHT22;35761;48.826;9.238;2023-04-03T02:04:59;4.60;38.90
49861;DHT22;35761;48.826;9.238;2023-04-03T02:07:30;4.50;38.50
49861;DHT22;35761;48.826;9.238;2023-04-03T02:10:01;4.50;38.20
49861;DHT22;35761;48.826;9.238;2023-04-03T02:12:32;4.40;38.00
49861;DHT22;35761;48.826;9.238;2023-04-03T02:15:03;4.40;37.90
49861;DHT22;35761;48.826;9.238;2023-04-03T02:17:38;4.40;37.70
49861;DHT22;35761;48.826;9.238;2023-04-03T02:20:09;4.40;37.90
49861;DHT22;35761;48.826;9.238;2023-04-03T02:22:40;4.40;37.90
49861;DHT22;35761;48.826;9.238;2023-04-03T02:25:11;4.40;37.90
49861;DHT22;35761;48.826;9.238;2023-04-03T02:27:41;4.40;38.00
49861;DHT22;35761;48.826;9.238;2023-04-03T02:30:12;4.40;38.10
49861;DHT22;35761;48.826;9.238;2023-04-03T02:32:45;4.40;37.80
49861;DHT22;35761;48.826;9.238;2023-04-03T02:35:16;4.40;37.70
49861;DHT22;35761;48.826;9.238;2023-04-03T02:37:48;4.30;37.50
49861;DHT22;35761;48.826;9.238;2023-04-03T02:40:19;4.30;37.60
49861;DHT22;35761;48.826;9.238;2023-04-03T02:42:50;4.40;37.70
49861;DHT22;35761;48.826;9.238;2023-04-03T02:45:23;4.30;37.50
49861;DHT22;35761;48.826;9.238;2023-04-03T02:47:56;4.30;37.50
49861;DHT22;35761;48.826;9.238;2023-04-03T02:50:26;4.30;37.10
49861;DHT22;35761;48.826;9.238;2023-04-03T02:52:57;4.30;36.90
49861;DHT22;35761;48.826;9.238;2023-04-03T02:55:27;4.40;37.00
49861;DHT22;35761;48.826;9.238;2023-04-03T02:57:58;4.30;36.50
49861;DHT22;35761;48.826;9.238;2023-04-03T03:00:28;4.40;36.30
49861;DHT22;35761;48.826;9.238;2023-04-03T03:03:02;4.30;36.60
49861;DHT22;35761;48.826;9.238;2023-04-03T03:05:32;4.40;36.50
49861;DHT22;35761;48.826;9.238;2023-04-03T03:08:03;4.30;36.00
49861;DHT22;35761;48.826;9.238;2023-04-03T03:10:33;4.30;35.90
49861;DHT22;35761;48.826;9.238;2023-04-03T03:13:05;4.20;35.80
49861;DHT22;35761;48.826;9.238;2023-04-03T03:15:35;4.30;36.00
49861;DHT22;35761;48.826;9.238;2023-04-03T03:18:08;4.30;36.10
49861;DHT22;35761;48.826;9.238;2023-04-03T03:20:38;4.30;36.10
49861;DHT22;35761;48.826;9.238;2023-04-03T03:23:09;4.30;36.10
49861;DHT22;35761;48.826;9.238;2023-04-03T03:25:40;4.30;36.50
49861;DHT22;35761;48.826;9.238;2023-04-03T03:28:10;4.30;36.70
49861;DHT22;35761;48.826;9.238;2023-04-03T03:30:42;4.30;36.80
49861;DHT22;35761;48.826;9.238;2023-04-03T03:33:16;4.20;37.10
49861;DHT22;35761;48.826;9.238;2023-04-03T03:35:47;4.20;37.70
49861;DHT22;35761;48.826;9.238;2023-04-03T03:38:17;4.20;37.90
49861;DHT22;35761;48.826;9.238;2023-04-03T03:40:48;4.20;37.90
49861;DHT22;35761;48.826;9.238;2023-04-03T03:43:21;4.30;38.10
49861;DHT22;35761;48.826;9.238;2023-04-03T03:45:53;4.30;38.10
49861;DHT22;35761;48.826;9.238;2023-04-03T03:48:28;4.20;37.90
49861;DHT22;35761;48.826;9.238;2023-04-03T03:50:59;4.30;38.10
49861;DHT22;35761;48.826;9.238;2023-04-03T03:53:33;4.30;38.20
49861;DHT22;35761;48.826;9.238;2023-04-03T03:56:07;4.30;38.40
49861;DHT22;35761;48.826;9.238;2023-04-03T03:58:39;4.30;38.50
49861;DHT22;35761;48.826;9.238;2023-04-03T04:01:10;4.20;37.60
49861;DHT22;35761;48.826;9.238;2023-04-03T04:03:48;4.20;37.50
49861;DHT22;35761;48.826;9.238;2023-04-03T04:06:25;4.20;37.20
49861;DHT22;35761;48.826;9.238;2023-04-03T04:08:59;4.20;36.40
49861;DHT22;35761;48.826;9.238;2023-04-03T04:11:30;4.10;36.40
49861;DHT22;35761;48.826;9.238;2023-04-03T04:14:01;4.10;36.10
49861;DHT22;35761;48.826;9.238;2023-04-03T04:16:32;4.10;36.10
49861;DHT22;35761;48.826;9.238;2023-04-03T04:19:11;4.10;36.20
49861;DHT22;35761;48.826;9.238;2023-04-03T04:21:43;4.10;36.60
49861;DHT22;35761;48.826;9.238;2023-04-03T04:24:14;4.20;36.80
49861;DHT22;35761;48.826;9.238;2023-04-03T04:26:46;4.10;36.80
49861;DHT22;35761;48.826;9.238;2023-04-03T04:29:17;4.10;36.70
49861;DHT22;35761;48.826;9.238;2023-04-03T04:31:50;4.10;36.90
49861;DHT22;35761;48.826;9.238;2023-04-03T04:34:24;4.10;37.00
49861;DHT22;35761;48.826;9.238;2023-04-03T04:36:55;4.10;35.90
49861;DHT22;35761;48.826;9.238;2023-04-03T04:39:27;4.10;35.60
49861;DHT22;35761;48.826;9.238;2023-04-03T04:41:58;4.10;35.00
49861;DHT22;35761;48.826;9.238;2023-04-03T04:44:30;4.10;34.40
49861;DHT22;35761;48.826;9.238;2023-04-03T04:47:01;4.10;34.10
49861;DHT22;35761;48.826;9.238;2023-04-03T04:49:34;4.10;34.40
49861;DHT22;35761;48.826;9.238;2023-04-03T04:52:05;4.10;34.20
49861;DHT22;35761;48.826;9.238;2023-04-03T04:54:36;4.10;33.90
49861;DHT22;35761;48.826;9.238;2023-04-03T04:57:07;4.10;34.00
49861;DHT22;35761;48.826;9.238;2023-04-03T04:59:40;4.10;34.40
49861;DHT22;35761;48.826;9.238;2023-04-03T05:02:11;4.10;34.90
49861;DHT22;35761;48.826;9.238;2023-04-03T05:04:46;4.10;35.00
49861;DHT22;35761;48.826;9.238;2023-04-03T05:07:21;4.10;35.20
49861;DHT22;35761;48.826;9.238;2023-04-03T05:09:52;4.10;35.90
49861;DHT22;35761;48.826;9.238;2023-04-03T05:12:23;4.10;35.20
49861;DHT22;35761;48.826;9.238;2023-04-03T05:14:58;4.00;35.10
49861;DHT22;35761;48.826;9.238;2023-04-03T05:17:30;4.00;35.50
49861;DHT22;35761;48.826;9.238;2023-04-03T05:20:06;4.00;35.70
49861;DHT22;35761;48.826;9.238;2023-04-03T05:22:37;4.00;35.80
49861;DHT22;35761;48.826;9.238;2023-04-03T05:25:09;4.00;35.90
49861;DHT22;35761;48.826;9.238;2023-04-03T05:27:43;4.00;35.70
49861;DHT22;35761;48.826;9.238;2023-04-03T05:30:14;4.00;35.80
49861;DHT22;35761;48.826;9.238;2023-04-03T05:32:45;4.00;35.80
49861;DHT22;35761;48.826;9.238;2023-04-03T05:35:21;4.00;36.80
49861;DHT22;35761;48.826;9.238;2023-04-03T05:37:56;4.10;37.80
49861;DHT22;35761;48.826;9.238;2023-04-03T05:40:27;4.30;36.40
49861;DHT22;35761;48.826;9.238;2023-04-03T05:42:57;4.30;35.70
49861;DHT22;35761;48.826;9.238;2023-04-03T05:45:32;4.20;35.00
49861;DHT22;35761;48.826;9.238;2023-04-03T05:48:03;4.30;34.60
49861;DHT22;35761;48.826;9.238;2023-04-03T05:50:37;4.20;34.60
49861;DHT22;35761;48.826;9.238;2023-04-03T05:53:17;4.20;34.80
49861;DHT22;35761;48.826;9.238;2023-04-03T05:55:51;4.20;35.20
49861;DHT22;35761;48.826;9.238;2023-04-03T05:58:23;4.10;35.40
49861;DHT22;35761;48.826;9.238;2023-04-03T06:00:54;4.10;35.50
49861;DHT22;35761;48.826;9.238;2023-04-03T06:03:25;4.10;35.70
49861;DHT22;35761;48.826;9.238;2023-04-03T06:05:58;4.10;35.70
49861;DHT22;35761;48.826;9.238;2023-04-03T06:08:30;4.10;36.40
49861;DHT22;35761;48.826;9.238;2023-04-03T06:11:02;4.10;35.90
49861;DHT22;35761;48.826;9.238;2023-04-03T06:13:33;4.10;36.20
49861;DHT22;35761;48.826;9.238;2023-04-03T06:16:04;4.20;36.10
49861;DHT22;35761;48.826;9.238;2023-04-03T06:18:36;4.20;36.60
49861;DHT22;35761;48.826;9.238;2023-04-03T06:21:09;4.20;36.00
49861;DHT22;35761;48.826;9.238;2023-04-03T06:23:40;4.20;35.30
49861;DHT22;35761;48.826;9.238;2023-04-03T06:26:11;4.20;35.60
49861;DHT22;35761;48.826;9.238;2023-04-03T06:28:41;4.30;35.80
49861;DHT22;35761;48.826;9.238;2023-04-03T06:31:11;4.40;34.90
49861;DHT22;35761;48.826;9.238;2023-04-03T06:33:43;4.40;34.70
49861;DHT22;35761;48.826;9.238;2023-04-03T06:36:18;4.40;35.00
49861;DHT22;35761;48.826;9.238;2023-04-03T06:38:49;4.30;35.80
49861;DHT22;35761;48.826;9.238;2023-04-03T06:41:20;4.40;36.00
49861;DHT22;35761;48.826;9.238;2023-04-03T06:43:50;4.40;35.50
49861;DHT22;35761;48.826;9.238;2023-04-03T06:46:24;4.40;35.30
49861;DHT22;35761;48.826;9.238;2023-04-03T06:48:56;4.40;36.00
49861;DHT22;35761;48.826;9.238;2023-04-03T06:51:30;4.40;36.40
49861;DHT22;35761;48.826;9.238;2023-04-03T06:54:01;4.30;37.00
49861;DHT22;35761;48.826;9.238;2023-04-03T06:56:33;4.40;36.00
49861;DHT22;35761;48.826;9.238;2023-04-03T06:59:03;4.30;36.30
49861;DHT22;35761;48.826;9.238;2023-04-03T07:01:34;4.40;36.40
49861;DHT22;35761;48.826;9.238;2023-04-03T07:04:05;4.40;36.00
49861;DHT22;35761;48.826;9.238;2023-04-03T07:06:38;4.50;36.40
49861;DHT22;35761;48.826;9.238;2023-04-03T07:09:09;4.50;36.40
49861;DHT22;35761;48.826;9.238;2023-04-03T07:11:40;4.50;35.90
49861;DHT22;35761;48.826;9.238;2023-04-03T07:14:10;4.50;35.90
49861;DHT22;35761;48.826;9.238;2023-04-03T07:16:41;4.40;36.40
49861;DHT22;35761;48.826;9.238;2023-04-03T07:19:12;4.50;37.00
49861;DHT22;35761;48.826;9.238;2023-04-03T07:21:45;4.60;36.80
49861;DHT22;35761;48.826;9.238;2023-04-03T07:24:15;4.60;36.80
49861;DHT22;35761;48.826;9.238;2023-04-03T07:26:49;4.60;36.50
49861;DHT22;35761;48.826;9.238;2023-04-03T07:29:19;4.60;37.20
49861;DHT22;35761;48.826;9.238;2023-04-03T07:31:51;4.70;36.90
49861;DHT22;35761;48.826;9.238;2023-04-03T07:34:22;4.70;37.10
49861;DHT22;35761;48.826;9.238;2023-04-03T07:36:55;4.70;36.20
49861;DHT22;35761;48.826;9.238;2023-04-03T07:39:26;4.80;36.30
49861;DHT22;35761;48.826;9.238;2023-04-03T07:41:56;4.80;35.80
49861;DHT22;35761;48.826;9.238;2023-04-03T07:44:27;4.80;35.50
49861;DHT22;35761;48.826;9.238;2023-04-03T07:46:58;4.70;36.00
49861;DHT22;35761;48.826;9.238;2023-04-03T07:49:28;4.80;36.40
49861;DHT22;35761;48.826;9.238;2023-04-03T07:52:02;4.80;36.40
49861;DHT22;35761;48.826;9.238;2023-04-03T07:54:37;4.80;36.10
49861;DHT22;35761;48.826;9.238;2023-04-03T07:57:08;4.80;36.50
49861;DHT22;35761;48.826;9.238;2023-04-03T07:59:39;4.90;35.50
49861;DHT22;35761;48.826;9.238;2023-04-03T08:02:10;4.90;36.20
49861;DHT22;35761;48.826;9.238;2023-04-03T08:04:40;4.90;35.90
49861;DHT22;35761;48.826;9.238;2023-04-03T08:07:13;5.00;35.90
49861;DHT22;35761;48.826;9.238;2023-04-03T08:09:44;5.00;35.60
49861;DHT22;35761;48.826;9.238;2023-04-03T08:12:17;5.00;36.00
49861;DHT22;35761;48.826;9.238;2023-04-03T08:14:48;4.90;36.60
49861;DHT22;35761;48.826;9.238;2023-04-03T08:17:18;5.00;36.40
49861;DHT22;35761;48.826;9.238;2023-04-03T08:19:49;5.10;36.90
49861;DHT22;35761;48.826;9.238;2023-04-03T08:22:22;5.10;35.90
49861;DHT22;35761;48.826;9.238;2023-04-03T08:24:53;5.10;36.10
49861;DHT22;35761;48.826;9.238;2023-04-03T08:27:25;5.20;36.40
49861;DHT22;35761;48.826;9.238;2023-04-03T08:29:56;5.30;36.10
49861;DHT22;35761;48.826;9.238;2023-04-03T08:32:27;5.30;35.70
49861;DHT22;35761;48.826;9.238;2023-04-03T08:34:58;5.30;35.10
49861;DHT22;35761;48.826;9.238;2023-04-03T08:37:31;5.30;35.20
49861;DHT22;35761;48.826;9.238;2023-04-03T08:40:06;5.40;35.20
49861;DHT22;35761;48.826;9.238;2023-04-03T08:42:49;5.40;34.40
49861;DHT22;35761;48.826;9.238;2023-04-03T08:45:30;5.50;34.20
49861;DHT22;35761;48.826;9.238;2023-04-03T08:48:15;5.50;34.90
49861;DHT22;35761;48.826;9.238;2023-04-03T08:50:49;5.50;34.70
49861;DHT22;35761;48.826;9.238;2023-04-03T08:53:26;5.50;35.60
49861;DHT22;35761;48.826;9.238;2023-04-03T08:56:04;5.50;34.80
49861;DHT22;35761;48.826;9.238;2023-04-03T08:58:41;5.50;35.80
49861;DHT22;35761;48.826;9.238;2023-04-03T09:01:19;5.60;33.20
49861;DHT22;35761;48.826;9.238;2023-04-03T09:03:52;5.60;32.90
49861;DHT22;35761;48.826;9.238;2023-04-03T09:06:25;5.70;33.30
49861;DHT22;35761;48.826;9.238;2023-04-03T09:09:11;5.70;34.90
49861;DHT22;35761;48.826;9.238;2023-04-03T09:11:51;5.80;33.70
49861;DHT22;35761;48.826;9.238;2023-04-03T09:14:35;5.80;33.50
49861;DHT22;35761;48.826;9.238;2023-04-03T09:17:14;5.70;33.70
49861;DHT22;35761;48.826;9.238;2023-04-03T09:19:54;5.70;33.80
49861;DHT22;35761;48.826;9.238;2023-04-03T09:22:28;5.80;33.10
49861;DHT22;35761;48.826;9.238;2023-04-03T09:25:17;5.90;32.70
49861;DHT22;35761;48.826;9.238;2023-04-03T09:27:50;5.90;32.70
49861;DHT22;35761;48.826;9.238;2023-04-03T09:30:23;5.90;33.50
49861;DHT22;35761;48.826;9.238;2023-04-03T09:32:56;5.90;32.60
49861;DHT22;35761;48.826;9.238;2023-04-03T09:35:29;6.00;32.00
49861;DHT22;35761;48.826;9.238;2023-04-03T09:38:21;6.00;32.10
49861;DHT22;35761;48.826;9.238;2023-04-03T09:41:06;6.10;32.40
49861;DHT22;35761;48.826;9.238;2023-04-03T09:43:52;6.10;32.10
49861;DHT22;35761;48.826;9.238;2023-04-03T09:46:28;6.20;31.90
49861;DHT22;35761;48.826;9.238;2023-04-03T09:49:02;6.20;31.30
49861;DHT22;35761;48.826;9.238;2023-04-03T09:51:36;6.20;31.20
49861;DHT22;35761;48.826;9.238;2023-04-03T09:57:14;6.20;30.10
49861;DHT22;35761;48.826;9.238;2023-04-03T09:59:47;6.20;31.10
49861;DHT22;35761;48.826;9.238;2023-04-03T10:02:34;6.30;30.90
49861;DHT22;35761;48.826;9.238;2023-04-03T10:05:27;6.30;31.70
49861;DHT22;35761;48.826;9.238;2023-04-03T10:08:20;6.30;31.20
49861;DHT22;35761;48.826;9.238;2023-04-03T10:11:13;6.40;30.60
49861;DHT22;35761;48.826;9.238;2023-04-03T10:13:59;6.50;28.90
49861;DHT22;35761;48.826;9.238;2023-04-03T10:16:36;6.50;27.70
49861;DHT22;35761;48.826;9.238;2023-04-03T10:19:33;6.50;27.80
49861;DHT22;35761;48.826;9.238;2023-04-03T10:22:16;6.50;27.90
49861;DHT22;35761;48.826;9.238;2023-04-03T10:24:56;6.50;27.90
49861;DHT22;35761;48.826;9.238;2023-04-03T10:27:48;6.40;28.50
49861;DHT22;35761;48.826;9.238;2023-04-03T10:30:36;6.50;29.80
49861;DHT22;35761;48.826;9.238;2023-04-03T10:33:23;6.50;30.00
49861;DHT22;35761;48.826;9.238;2023-04-03T10:36:08;6.40;29.10
49861;DHT22;35761;48.826;9.238;2023-04-03T10:38:48;6.50;28.60
49861;DHT22;35761;48.826;9.238;2023-04-03T10:41:28;6.50;28.40
49861;DHT22;35761;48.826;9.238;2023-04-03T10:44:14;6.50;27.70
49861;DHT22;35761;48.826;9.238;2023-04-03T10:46:52;6.60;27.10
49861;DHT22;35761;48.826;9.238;2023-04-03T10:49:34;6.60;26.30
49861;DHT22;35761;48.826;9.238;2023-04-03T10:52:30;6.60;26.30
49861;DHT22;35761;48.826;9.238;2023-04-03T10:55:21;6.50;26.00
49861;DHT22;35761;48.826;9.238;2023-04-03T10:57:57;6.50;24.70
49861;DHT22;35761;48.826;9.238;2023-04-03T11:00:35;6.50;25.80
49861;DHT22;35761;48.826;9.238;2023-04-03T11:03:14;6.50;27.40
49861;DHT22;35761;48.826;9.238;2023-04-03T11:05:59;6.60;26.20
49861;DHT22;35761;48.826;9.238;2023-04-03T11:08:37;6.50;26.20
49861;DHT22;35761;48.826;9.238;2023-04-03T11:11:13;6.70;24.10
49861;DHT22;35761;48.826;9.238;2023-04-03T11:13:49;6.70;24.80
49861;DHT22;35761;48.826;9.238;2023-04-03T11:16:25;6.70;25.00
49861;DHT22;35761;48.826;9.238;2023-04-03T11:19:13;6.70;24.70
49861;DHT22;35761;48.826;9.238;2023-04-03T11:21:54;6.80;24.90
49861;DHT22;35761;48.826;9.238;2023-04-03T11:24:31;6.70;25.40
49861;DHT22;35761;48.826;9.238;2023-04-03T11:27:04;6.80;25.40
49861;DHT22;35761;48.826;9.238;2023-04-03T11:29:37;6.80;25.30
49861;DHT22;35761;48.826;9.238;2023-04-03T11:32:26;6.80;24.70
49861;DHT22;35761;48.826;9.238;2023-04-03T11:35:17;6.80;24.70
49861;DHT22;35761;48.826;9.238;2023-04-03T11:37:51;6.70;25.30
49861;DHT22;35761;48.826;9.238;2023-04-03T11:40:25;6.70;25.60
49861;DHT22;35761;48.826;9.238;2023-04-03T11:43:05;6.80;26.20
49861;DHT22;35761;48.826;9.238;2023-04-03T11:45:49;6.80;25.20
49861;DHT22;35761;48.826;9.238;2023-04-03T11:48:50;6.80;24.90
49861;DHT22;35761;48.826;9.238;2023-04-03T11:51:52;6.90;24.80
49861;DHT22;35761;48.826;9.238;2023-04-03T11:54:47;6.90;24.50
49861;DHT22;35761;48.826;9.238;2023-04-03T11:57:47;7.00;23.90
49861;DHT22;35761;48.826;9.238;2023-04-03T12:00:49;7.00;24.30
49861;DHT22;35761;48.826;9.238;2023-04-03T12:03:33;7.00;25.70
49861;DHT22;35761;48.826;9.238;2023-04-03T12:06:42;6.90;25.60
49861;DHT22;35761;48.826;9.238;2023-04-03T12:12:39;7.00;23.40
49861;DHT22;35761;48.826;9.238;2023-04-03T12:15:24;6.90;23.90
49861;DHT22;35761;48.826;9.238;2023-04-03T12:24:40;7.00;23.70
49861;DHT22;35761;48.826;9.238;2023-04-03T12:27:22;7.10;24.90
49861;DHT22;35761;48.826;9.238;2023-04-03T12:30:01;7.20;23.00
49861;DHT22;35761;48.826;9.238;2023-04-03T12:32:57;7.20;22.60
49861;DHT22;35761;48.826;9.238;2023-04-03T12:35:44;7.30;22.80
49861;DHT22;35761;48.826;9.238;2023-04-03T12:38:46;7.30;21.90
49861;DHT22;35761;48.826;9.238;2023-04-03T12:41:38;7.30;22.30
49861;DHT22;35761;48.826;9.238;2023-04-03T12:44:30;7.30;22.10
49861;DHT22;35761;48.826;9.238;2023-04-03T12:47:23;7.30;21.30
49861;DHT22;35761;48.826;9.238;2023-04-03T12:49:56;7.30;21.50
49861;DHT22;35761;48.826;9.238;2023-04-03T12:52:33;7.30;21.80
49861;DHT22;35761;48.826;9.238;2023-04-03T12:55:19;7.30;21.50
49861;DHT22;35761;48.826;9.238;2023-04-03T12:57:51;7.30;21.60
49861;DHT22;35761;48.826;9.238;2023-04-03T13:00:33;7.20;21.80
49861;DHT22;35761;48.826;9.238;2023-04-03T13:03:21;7.20;22.00
49861;DHT22;35761;48.826;9.238;2023-04-03T13:05:56;7.20;22.70
49861;DHT22;35761;48.826;9.238;2023-04-03T13:08:29;7.30;22.30
49861;DHT22;35761;48.826;9.238;2023-04-03T13:11:06;7.50;22.00
49861;DHT22;35761;48.826;9.238;2023-04-03T13:13:39;7.50;21.40
49861;DHT22;35761;48.826;9.238;2023-04-03T13:16:11;7.50;22.00
49861;DHT22;35761;48.826;9.238;2023-04-03T13:18:42;7.40;22.50
49861;DHT22;35761;48.826;9.238;2023-04-03T13:21:15;7.50;20.80
49861;DHT22;35761;48.826;9.238;2023-04-03T13:23:50;7.60;20.50
49861;DHT22;35761;48.826;9.238;2023-04-03T13:26:43;7.60;20.40
49861;DHT22;35761;48.826;9.238;2023-04-03T13:29:22;7.60;20.00
49861;DHT22;35761;48.826;9.238;2023-04-03T13:31:59;7.60;20.20
49861;DHT22;35761;48.826;9.238;2023-04-03T13:34:37;7.60;19.20
49861;DHT22;35761;48.826;9.238;2023-04-03T13:37:20;7.60;19.50
49861;DHT22;35761;48.826;9.238;2023-04-03T13:40:01;7.60;19.80
49861;DHT22;35761;48.826;9.238;2023-04-03T13:42:42;7.60;19.90
49861;DHT22;35761;48.826;9.238;2023-04-03T13:45:19;7.80;19.10
49861;DHT22;35761;48.826;9.238;2023-04-03T13:48:06;7.90;19.60
49861;DHT22;35761;48.826;9.238;2023-04-03T13:50:54;7.90;19.10
49861;DHT22;35761;48.826;9.238;2023-04-03T13:53:29;7.80;19.20
49861;DHT22;35761;48.826;9.238;2023-04-03T13:56:07;7.90;19.50
49861;DHT22;35761;48.826;9.238;2023-04-03T13:58:53;7.90;20.00
49861;DHT22;35761;48.826;9.238;2023-04-03T14:01:34;8.00;20.00
49861;DHT22;35761;48.826;9.238;2023-04-03T14:04:17;8.10;18.60
49861;DHT22;35761;48.826;9.238;2023-04-03T14:06:49;8.00;18.70
49861;DHT22;35761;48.826;9.238;2023-04-03T14:09:22;8.00;18.20
49861;DHT22;35761;48.826;9.238;2023-04-03T14:11:56;8.00;18.40
49861;DHT22;35761;48.826;9.238;2023-04-03T14:14:36;8.00;18.40
49861;DHT22;35761;48.826;9.238;2023-04-03T14:17:14;8.00;18.90
49861;DHT22;35761;48.826;9.238;2023-04-03T14:19:52;8.00;18.80
49861;DHT22;35761;48.826;9.238;2023-04-03T14:22:26;8.00;19.00
49861;DHT22;35761;48.826;9.238;2023-04-03T14:24:58;8.00;19.00
49861;DHT22;35761;48.826;9.238;2023-04-03T14:27:33;8.00;18.70
49861;DHT22;35761;48.826;9.238;2023-04-03T14:30:12;8.10;18.80
49861;DHT22;35761;48.826;9.238;2023-04-03T14:32:45;8.20;18.50
49861;DHT22;35761;48.826;9.238;2023-04-03T14:35:17;8.60;17.70
49861;DHT22;35761;48.826;9.238;2023-04-03T14:37:49;8.80;16.80
49861;DHT22;35761;48.826;9.238;2023-04-03T14:40:23;8.80;16.80
49861;DHT22;35761;48.826;9.238;2023-04-03T14:42:55;8.80;17.30
49861;DHT22;35761;48.826;9.238;2023-04-03T14:45:29;8.70;17.20
49861;DHT22;35761;48.826;9.238;2023-04-03T14:47:59;8.70;17.20
49861;DHT22;35761;48.826;9.238;2023-04-03T14:50:30;8.70;17.00
49861;DHT22;35761;48.826;9.238;2023-04-03T14:53:00;8.60;15.90
49861;DHT22;35761;48.826;9.238;2023-04-03T14:55:32;8.50;16.40
49861;DHT22;35761;48.826;9.238;2023-04-03T14:58:02;8.50;17.00
49861;DHT22;35761;48.826;9.238;2023-04-03T15:00:35;8.50;16.60
49861;DHT22;35761;48.826;9.238;2023-04-03T15:03:08;8.50;16.80
49861;DHT22;35761;48.826;9.238;2023-04-03T15:05:43;8.50;16.90
49861;DHT22;35761;48.826;9.238;2023-04-03T15:08:19;8.50;16.60
49861;DHT22;35761;48.826;9.238;2023-04-03T15:10:52;8.60;16.40
49861;DHT22;35761;48.826;9.238;2023-04-03T15:13:23;8.90;15.90
49861;DHT22;35761;48.826;9.238;2023-04-03T15:15:57;8.90;15.80
49861;DHT22;35761;48.826;9.238;2023-04-03T15:18:33;8.90;16.30
49861;DHT22;35761;48.826;9.238;2023-04-03T15:21:06;8.90;16.10
49861;DHT22;35761;48.826;9.238;2023-04-03T15:23:37;8.90;15.60
49861;DHT22;35761;48.826;9.238;2023-04-03T15:26:07;8.90;14.80
49861;DHT22;35761;48.826;9.238;2023-04-03T15:28:40;8.90;15.60
49861;DHT22;35761;48.826;9.238;2023-04-03T15:31:15;8.80;15.40
49861;DHT22;35761;48.826;9.238;2023-04-03T15:33:45;8.80;16.10
49861;DHT22;35761;48.826;9.238;2023-04-03T15:36:16;8.80;15.90
49861;DHT22;35761;48.826;9.238;2023-04-03T15:39:00;8.90;15.10
49861;DHT22;35761;48.826;9.238;2023-04-03T15:41:31;8.90;14.60
49861;DHT22;35761;48.826;9.238;2023-04-03T15:44:02;9.00;14.50
49861;DHT22;35761;48.826;9.238;2023-04-03T15:46:35;9.20;14.90
49861;DHT22;35761;48.826;9.238;2023-04-03T15:49:05;9.40;14.80
49861;DHT22;35761;48.826;9.238;2023-04-03T15:51:36;9.60;14.70
49861;DHT22;35761;48.826;9.238;2023-04-03T15:54:07;9.90;14.00
49861;DHT22;35761;48.826;9.238;2023-04-03T15:56:37;10.20;13.70
49861;DHT22;35761;48.826;9.238;2023-04-03T15:59:08;10.40;13.30
49861;DHT22;35761;48.826;9.238;2023-04-03T16:01:41;10.60;12.90
49861;DHT22;35761;48.826;9.238;2023-04-03T16:04:12;10.70;14.00
49861;DHT22;35761;48.826;9.238;2023-04-03T16:06:44;10.90;13.50
49861;DHT22;35761;48.826;9.238;2023-04-03T16:09:15;11.00;12.50
49861;DHT22;35761;48.826;9.238;2023-04-03T16:11:47;10.90;12.20
49861;DHT22;35761;48.826;9.238;2023-04-03T16:14:18;10.80;12.10
49861;DHT22;35761;48.826;9.238;2023-04-03T16:16:51;10.60;12.70
49861;DHT22;35761;48.826;9.238;2023-04-03T16:19:22;10.40;12.60
49861;DHT22;35761;48.826;9.238;2023-04-03T16:21:53;10.40;12.90
49861;DHT22;35761;48.826;9.238;2023-04-03T16:24:24;10.50;13.10
49861;DHT22;35761;48.826;9.238;2023-04-03T16:26:54;10.70;12.90
49861;DHT22;35761;48.826;9.238;2023-04-03T16:29:25;10.90;13.10
49861;DHT22;35761;48.826;9.238;2023-04-03T16:31:59;11.00;12.40
49861;DHT22;35761;48.826;9.238;2023-04-03T16:34:29;11.30;12.40
49861;DHT22;35761;48.826;9.238;2023-04-03T16:37:00;11.50;11.70
49861;DHT22;35761;48.826;9.238;2023-04-03T16:39:31;11.60;11.80
49861;DHT22;35761;48.826;9.238;2023-04-03T16:42:01;11.70;12.00
49861;DHT22;35761;48.826;9.238;2023-04-03T16:44:32;11.90;11.60
49861;DHT22;35761;48.826;9.238;2023-04-03T16:47:05;11.90;11.90
49861;DHT22;35761;48.826;9.238;2023-04-03T16:49:38;12.00;11.00